sensor_id;sensor_type;location;lat;lon;timestamp;temperature;humidity
12870;DHT22;6503;48.572;13.460;2022-12-29T00:02:24;0.50;99.90
12870;DHT22;6503;48.572;13.460;2022-12-29T00:05:18;0.40;99.90
12870;DHT22;6503;48.572;13.460;2022-12-29T00:11:28;0.50;99.90
12870;DHT22;6503;48.572;13.460;2022-12-29T00:17:38;0.40;99.90
12870;DHT22;6503;48.572;13.460;2022-12-29T00:20:25;0.50;99.90
12870;DHT22;6503;48.572;13.460;2022-12-29T00:23:11;0.50;99.90
12870;DHT22;6503;48.572;13.460;2022-12-29T00:26:19;0.50;99.90
12870;DHT22;6503;48.572;13.460;2022-12-29T00:29:11;0.50;99.90
12870;DHT22;6503;48.572;13.460;2022-12-29T00:31:59;0.50;99.90
12870;DHT22;6503;48.572;13.460;2022-12-29T00:34:47;0.50;99.90
12870;DHT22;6503;48.572;13.460;2022-12-29T00:37:35;0.50;99.90
12870;DHT22;6503;48.572;13.460;2022-12-29T00:40:48;0.50;99.90
12870;DHT22;6503;48.572;13.460;2022-12-29T00:43:36;0.50;99.90
12870;DHT22;6503;48.572;13.460;2022-12-29T00:46:22;0.50;99.90
12870;DHT22;6503;48.572;13.460;2022-12-29T00:49:08;0.50;99.90
12870;DHT22;6503;48.572;13.460;2022-12-29T00:52:00;0.50;99.90
12870;DHT22;6503;48.572;13.460;2022-12-29T00:54:47;0.40;99.90
12870;DHT22;6503;48.572;13.460;2022-12-29T00:57:30;0.50;99.90
12870;DHT22;6503;48.572;13.460;2022-12-29T01:00:11;0.50;99.90
12870;DHT22;6503;48.572;13.460;2022-12-29T01:03:06;0.50;99.90
12870;DHT22;6503;48.572;13.460;2022-12-29T01:05:49;0.50;99.90
12870;DHT22;6503;48.572;13.460;2022-12-29T01:08:51;0.50;99.90
12870;DHT22;6503;48.572;13.460;2022-12-29T01:11:52;0.40;99.90
12870;DHT22;6503;48.572;13.460;2022-12-29T01:14:36;0.50;99.90
12870;DHT22;6503;48.572;13.460;2022-12-29T01:17:27;0.40;99.90
12870;DHT22;6503;48.572;13.460;2022-12-29T01:23:49;0.40;99.90
12870;DHT22;6503;48.572;13.460;2022-12-29T01:26:51;0.40;99.90
12870;DHT22;6503;48.572;13.460;2022-12-29T01:29:43;0.40;99.90
12870;DHT22;6503;48.572;13.460;2022-12-29T01:32:28;0.40;99.90
12870;DHT22;6503;48.572;13.460;2022-12-29T01:38:44;0.40;99.90
12870;DHT22;6503;48.572;13.460;2022-12-29T01:41:27;0.30;99.90
12870;DHT22;6503;48.572;13.460;2022-12-29T01:47:47;0.20;99.90
12870;DHT22;6503;48.572;13.460;2022-12-29T01:50:35;0.30;99.90
12870;DHT22;6503;48.572;13.460;2022-12-29T02:00:36;0.20;99.90
12870;DHT22;6503;48.572;13.460;2022-12-29T02:03:51;0.20;99.90
12870;DHT22;6503;48.572;13.460;2022-12-29T02:06:58;0.10;99.90
12870;DHT22;6503;48.572;13.460;2022-12-29T02:09:49;0.20;99.90
12870;DHT22;6503;48.572;13.460;2022-12-29T02:12:28;0.10;99.90
12870;DHT22;6503;48.572;13.460;2022-12-29T02:18:43;0.10;99.90
12870;DHT22;6503;48.572;13.460;2022-12-29T02:22:08;0.10;99.90
12870;DHT22;6503;48.572;13.460;2022-12-29T02:28:53;0.10;99.90
12870;DHT22;6503;48.572;13.460;2022-12-29T02:31:51;0.10;99.90
12870;DHT22;6503;48.572;13.460;2022-12-29T02:34:57;0.10;99.90
12870;DHT22;6503;48.572;13.460;2022-12-29T02:38:09;0.10;99.90
12870;DHT22;6503;48.572;13.460;2022-12-29T02:41:00;0.10;99.90
12870;DHT22;6503;48.572;13.460;2022-12-29T02:43:59;0.10;99.90
12870;DHT22;6503;48.572;13.460;2022-12-29T02:47:04;0.10;99.90
12870;DHT22;6503;48.572;13.460;2022-12-29T02:50:13;0.20;99.90
12870;DHT22;6503;48.572;13.460;2022-12-29T02:53:09;0.10;99.90
12870;DHT22;6503;48.572;13.460;2022-12-29T02:56:12;0.10;99.90
12870;DHT22;6503;48.572;13.460;2022-12-29T02:59:26;0.20;99.90
12870;DHT22;6503;48.572;13.460;2022-12-29T03:06:09;0.00;99.90
12870;DHT22;6503;48.572;13.460;2022-12-29T03:12:36;0.00;99.90
12870;DHT22;6503;48.572;13.460;2022-12-29T03:15:55;0.00;99.90
12870;DHT22;6503;48.572;13.460;2022-12-29T03:51:49;0.00;99.90
12870;DHT22;6503;48.572;13.460;2022-12-29T04:00:51;0.00;99.90
12870;DHT22;6503;48.572;13.460;2022-12-29T04:03:34;0.00;99.90
12870;DHT22;6503;48.572;13.460;2022-12-29T04:06:21;0.00;99.90
12870;DHT22;6503;48.572;13.460;2022-12-29T04:09:14;0.00;99.90
12870;DHT22;6503;48.572;13.460;2022-12-29T04:11:58;-0.10;99.90
12870;DHT22;6503;48.572;13.460;2022-12-29T04:14:50;-0.10;99.90
12870;DHT22;6503;48.572;13.460;2022-12-29T04:17:37;-0.10;99.90
12870;DHT22;6503;48.572;13.460;2022-12-29T04:20:10;-0.20;99.90
12870;DHT22;6503;48.572;13.460;2022-12-29T04:23:09;-0.20;99.90
12870;DHT22;6503;48.572;13.460;2022-12-29T04:25:57;-0.20;99.90
12870;DHT22;6503;48.572;13.460;2022-12-29T04:28:35;-0.20;99.90
12870;DHT22;6503;48.572;13.460;2022-12-29T04:31:10;-0.20;99.90
12870;DHT22;6503;48.572;13.460;2022-12-29T04:33:40;-0.10;99.90
12870;DHT22;6503;48.572;13.460;2022-12-29T04:36:16;-0.20;99.90
12870;DHT22;6503;48.572;13.460;2022-12-29T04:38:48;-0.10;99.90
12870;DHT22;6503;48.572;13.460;2022-12-29T04:44:24;-0.30;99.90
12870;DHT22;6503;48.572;13.460;2022-12-29T04:46:57;-0.20;99.90
12870;DHT22;6503;48.572;13.460;2022-12-29T04:49:36;-0.20;99.90
12870;DHT22;6503;48.572;13.460;2022-12-29T04:52:05;-0.20;99.90
12870;DHT22;6503;48.572;13.460;2022-12-29T04:54:48;-0.20;99.90
12870;DHT22;6503;48.572;13.460;2022-12-29T04:57:21;-0.10;99.90
12870;DHT22;6503;48.572;13.460;2022-12-29T05:00:03;-0.10;99.90
12870;DHT22;6503;48.572;13.460;2022-12-29T05:02:31;-0.10;99.90
12870;DHT22;6503;48.572;13.460;2022-12-29T05:05:02;-0.10;99.90
12870;DHT22;6503;48.572;13.460;2022-12-29T05:07:31;-0.10;99.90
12870;DHT22;6503;48.572;13.460;2022-12-29T05:10:06;-0.10;99.90
12870;DHT22;6503;48.572;13.460;2022-12-29T05:12:35;-0.10;99.90
12870;DHT22;6503;48.572;13.460;2022-12-29T05:15:10;-0.10;99.90
12870;DHT22;6503;48.572;13.460;2022-12-29T05:17:40;-0.10;99.90
12870;DHT22;6503;48.572;13.460;2022-12-29T05:20:08;-0.10;99.90
12870;DHT22;6503;48.572;13.460;2022-12-29T05:22:37;-0.10;99.90
12870;DHT22;6503;48.572;13.460;2022-12-29T05:25:10;-0.10;99.90
12870;DHT22;6503;48.572;13.460;2022-12-29T05:27:40;-0.10;99.90
12870;DHT22;6503;48.572;13.460;2022-12-29T05:30:19;-0.10;99.90
12870;DHT22;6503;48.572;13.460;2022-12-29T05:32:49;0.00;99.90
12870;DHT22;6503;48.572;13.460;2022-12-29T05:35:22;0.00;99.90
12870;DHT22;6503;48.572;13.460;2022-12-29T05:37:53;0.00;99.90
12870;DHT22;6503;48.572;13.460;2022-12-29T05:40:24;0.00;99.90
12870;DHT22;6503;48.572;13.460;2022-12-29T05:42:57;0.00;99.90
12870;DHT22;6503;48.572;13.460;2022-12-29T05:45:32;0.10;99.90
12870;DHT22;6503;48.572;13.460;2022-12-29T05:48:00;0.10;99.90
12870;DHT22;6503;48.572;13.460;2022-12-29T05:50:34;0.10;99.90
12870;DHT22;6503;48.572;13.460;2022-12-29T05:53:02;0.20;99.90
12870;DHT22;6503;48.572;13.460;2022-12-29T05:55:30;0.10;99.90
12870;DHT22;6503;48.572;13.460;2022-12-29T05:58:02;0.10;99.90
12870;DHT22;6503;48.572;13.460;2022-12-29T06:00:37;0.20;99.90
12870;DHT22;6503;48.572;13.460;2022-12-29T06:03:07;0.30;99.90
12870;DHT22;6503;48.572;13.460;2022-12-29T06:05:37;0.20;99.90
12870;DHT22;6503;48.572;13.460;2022-12-29T06:08:08;0.20;99.90
12870;DHT22;6503;48.572;13.460;2022-12-29T06:10:43;0.20;99.90
12870;DHT22;6503;48.572;13.460;2022-12-29T06:13:33;0.30;99.90
12870;DHT22;6503;48.572;13.460;2022-12-29T06:16:16;0.40;99.90
12870;DHT22;6503;48.572;13.460;2022-12-29T06:19:02;0.40;99.90
12870;DHT22;6503;48.572;13.460;2022-12-29T06:21:44;0.50;99.90
12870;DHT22;6503;48.572;13.460;2022-12-29T06:24:16;0.40;99.90
12870;DHT22;6503;48.572;13.460;2022-12-29T06:26:50;0.30;99.90
12870;DHT22;6503;48.572;13.460;2022-12-29T06:29:48;0.30;99.90
12870;DHT22;6503;48.572;13.460;2022-12-29T06:32:22;0.40;99.90
12870;DHT22;6503;48.572;13.460;2022-12-29T06:34:53;0.50;99.90
12870;DHT22;6503;48.572;13.460;2022-12-29T06:37:35;0.60;99.90
12870;DHT22;6503;48.572;13.460;2022-12-29T06:43:17;0.60;99.90
12870;DHT22;6503;48.572;13.460;2022-12-29T06:45:58;0.70;99.90
12870;DHT22;6503;48.572;13.460;2022-12-29T06:52:01;0.80;99.90
12870;DHT22;6503;48.572;13.460;2022-12-29T06:55:14;0.80;99.90
12870;DHT22;6503;48.572;13.460;2022-12-29T06:58:09;0.90;99.90
12870;DHT22;6503;48.572;13.460;2022-12-29T07:00:57;0.90;99.90
12870;DHT22;6503;48.572;13.460;2022-12-29T07:10:27;1.10;99.90
12870;DHT22;6503;48.572;13.460;2022-12-29T07:13:11;1.10;99.90
12870;DHT22;6503;48.572;13.460;2022-12-29T07:15:57;1.20;99.90
12870;DHT22;6503;48.572;13.460;2022-12-29T07:19:17;1.30;99.90
12870;DHT22;6503;48.572;13.460;2022-12-29T07:22:14;1.30;99.90
12870;DHT22;6503;48.572;13.460;2022-12-29T07:25:18;1.40;99.90
12870;DHT22;6503;48.572;13.460;2022-12-29T07:28:15;1.40;99.90
12870;DHT22;6503;48.572;13.460;2022-12-29T07:31:21;1.40;99.90
12870;DHT22;6503;48.572;13.460;2022-12-29T07:40:22;1.60;99.90
12870;DHT22;6503;48.572;13.460;2022-12-29T07:42:49;1.60;99.90
12870;DHT22;6503;48.572;13.460;2022-12-29T07:45:36;1.60;99.90
12870;DHT22;6503;48.572;13.460;2022-12-29T07:48:50;1.60;99.90
12870;DHT22;6503;48.572;13.460;2022-12-29T07:51:52;1.60;99.90
12870;DHT22;6503;48.572;13.460;2022-12-29T07:55:18;1.60;99.90
12870;DHT22;6503;48.572;13.460;2022-12-29T07:58:02;1.70;99.90
12870;DHT22;6503;48.572;13.460;2022-12-29T08:00:58;1.70;99.90
12870;DHT22;6503;48.572;13.460;2022-12-29T08:03:31;1.90;99.90
12870;DHT22;6503;48.572;13.460;2022-12-29T08:06:46;2.00;99.90
12870;DHT22;6503;48.572;13.460;2022-12-29T08:09:36;2.00;99.90
12870;DHT22;6503;48.572;13.460;2022-12-29T08:19:24;2.20;99.90
12870;DHT22;6503;48.572;13.460;2022-12-29T08:22:06;2.30;99.90
12870;DHT22;6503;48.572;13.460;2022-12-29T08:25:23;2.30;99.90
12870;DHT22;6503;48.572;13.460;2022-12-29T08:28:18;2.40;99.90
12870;DHT22;6503;48.572;13.460;2022-12-29T08:34:20;2.50;99.90
12870;DHT22;6503;48.572;13.460;2022-12-29T08:40:05;2.60;99.90
12870;DHT22;6503;48.572;13.460;2022-12-29T08:44:57;2.60;99.90
12870;DHT22;6503;48.572;13.460;2022-12-29T08:46:30;2.70;99.90
12870;DHT22;6503;48.572;13.460;2022-12-29T08:52:42;2.90;99.90
12870;DHT22;6503;48.572;13.460;2022-12-29T08:55:19;3.00;99.90
12870;DHT22;6503;48.572;13.460;2022-12-29T08:58:01;2.90;99.90
12870;DHT22;6503;48.572;13.460;2022-12-29T09:02:20;2.90;99.90
12870;DHT22;6503;48.572;13.460;2022-12-29T09:04:06;2.90;99.90
12870;DHT22;6503;48.572;13.460;2022-12-29T09:07:12;2.90;99.90
12870;DHT22;6503;48.572;13.460;2022-12-29T09:09:46;2.90;99.90
12870;DHT22;6503;48.572;13.460;2022-12-29T09:12:24;2.90;99.90
12870;DHT22;6503;48.572;13.460;2022-12-29T09:18:37;3.00;99.90
12870;DHT22;6503;48.572;13.460;2022-12-29T09:21:34;3.20;99.90
12870;DHT22;6503;48.572;13.460;2022-12-29T09:24:33;3.40;99.90
12870;DHT22;6503;48.572;13.460;2022-12-29T09:30:50;3.70;99.90
12870;DHT22;6503;48.572;13.460;2022-12-29T09:36:54;3.90;99.90
12870;DHT22;6503;48.572;13.460;2022-12-29T09:39:52;4.00;99.90
12870;DHT22;6503;48.572;13.460;2022-12-29T09:42:38;4.10;99.90
12870;DHT22;6503;48.572;13.460;2022-12-29T09:45:51;4.10;99.90
12870;DHT22;6503;48.572;13.460;2022-12-29T09:52:31;4.20;99.90
12870;DHT22;6503;48.572;13.460;2022-12-29T09:56:10;4.40;99.90
12870;DHT22;6503;48.572;13.460;2022-12-29T10:00:06;4.40;99.90
12870;DHT22;6503;48.572;13.460;2022-12-29T10:02:49;4.40;99.90
12870;DHT22;6503;48.572;13.460;2022-12-29T10:05:38;4.40;99.90
12870;DHT22;6503;48.572;13.460;2022-12-29T10:08:42;4.40;99.90
12870;DHT22;6503;48.572;13.460;2022-12-29T10:12:03;4.50;99.90
12870;DHT22;6503;48.572;13.460;2022-12-29T10:15:02;4.60;99.90
12870;DHT22;6503;48.572;13.460;2022-12-29T10:18:02;4.60;99.90
12870;DHT22;6503;48.572;13.460;2022-12-29T10:21:07;4.70;99.90
12870;DHT22;6503;48.572;13.460;2022-12-29T10:23:49;4.80;99.90
12870;DHT22;6503;48.572;13.460;2022-12-29T10:26:41;5.00;99.90
12870;DHT22;6503;48.572;13.460;2022-12-29T10:32:55;5.00;99.90
12870;DHT22;6503;48.572;13.460;2022-12-29T10:36:01;5.10;99.90
12870;DHT22;6503;48.572;13.460;2022-12-29T10:38:38;5.20;99.90
12870;DHT22;6503;48.572;13.460;2022-12-29T10:41:13;5.20;99.90
12870;DHT22;6503;48.572;13.460;2022-12-29T10:43:45;5.30;99.90
12870;DHT22;6503;48.572;13.460;2022-12-29T10:46:15;5.20;99.90
12870;DHT22;6503;48.572;13.460;2022-12-29T10:48:46;5.30;99.90
12870;DHT22;6503;48.572;13.460;2022-12-29T10:51:21;5.40;99.90
12870;DHT22;6503;48.572;13.460;2022-12-29T10:53:53;5.40;99.90
12870;DHT22;6503;48.572;13.460;2022-12-29T10:56:35;5.40;99.90
12870;DHT22;6503;48.572;13.460;2022-12-29T10:59:10;5.50;99.90
12870;DHT22;6503;48.572;13.460;2022-12-29T11:01:46;5.50;99.90
12870;DHT22;6503;48.572;13.460;2022-12-29T11:04:33;5.60;99.90
12870;DHT22;6503;48.572;13.460;2022-12-29T11:07:04;5.70;99.90
12870;DHT22;6503;48.572;13.460;2022-12-29T11:09:34;5.80;99.90
12870;DHT22;6503;48.572;13.460;2022-12-29T11:12:19;5.80;99.90
12870;DHT22;6503;48.572;13.460;2022-12-29T11:14:47;5.90;99.90
12870;DHT22;6503;48.572;13.460;2022-12-29T11:17:52;5.90;99.90
12870;DHT22;6503;48.572;13.460;2022-12-29T11:20:36;6.00;99.90
12870;DHT22;6503;48.572;13.460;2022-12-29T11:23:23;6.00;99.90
12870;DHT22;6503;48.572;13.460;2022-12-29T11:26:39;5.90;99.90
12870;DHT22;6503;48.572;13.460;2022-12-29T11:29:50;5.90;99.90
12870;DHT22;6503;48.572;13.460;2022-12-29T11:33:07;5.90;99.90
12870;DHT22;6503;48.572;13.460;2022-12-29T11:36:20;5.90;99.90
12870;DHT22;6503;48.572;13.460;2022-12-29T11:39:29;5.90;99.90
12870;DHT22;6503;48.572;13.460;2022-12-29T11:42:04;5.80;99.90
12870;DHT22;6503;48.572;13.460;2022-12-29T11:45:06;5.70;99.90
12870;DHT22;6503;48.572;13.460;2022-12-29T11:48:05;5.70;99.90
12870;DHT22;6503;48.572;13.460;2022-12-29T11:50:51;5.70;99.90
12870;DHT22;6503;48.572;13.460;2022-12-29T11:53:33;5.70;99.90
12870;DHT22;6503;48.572;13.460;2022-12-29T11:56:22;5.80;99.90
12870;DHT22;6503;48.572;13.460;2022-12-29T11:58:57;6.00;99.90
12870;DHT22;6503;48.572;13.460;2022-12-29T12:01:29;6.20;99.90
12870;DHT22;6503;48.572;13.460;2022-12-29T12:04:18;6.30;99.90
12870;DHT22;6503;48.572;13.460;2022-12-29T12:07:04;6.30;99.90
12870;DHT22;6503;48.572;13.460;2022-12-29T12:09:43;6.50;99.90
12870;DHT22;6503;48.572;13.460;2022-12-29T12:12:43;6.60;99.90
12870;DHT22;6503;48.572;13.460;2022-12-29T12:15:19;6.70;99.90
12870;DHT22;6503;48.572;13.460;2022-12-29T12:17:51;6.90;99.90
12870;DHT22;6503;48.572;13.460;2022-12-29T12:20:22;7.00;99.90
12870;DHT22;6503;48.572;13.460;2022-12-29T12:23:02;7.10;99.90
12870;DHT22;6503;48.572;13.460;2022-12-29T12:25:38;7.10;99.90
12870;DHT22;6503;48.572;13.460;2022-12-29T12:28:21;7.10;99.90
12870;DHT22;6503;48.572;13.460;2022-12-29T12:30:56;7.00;99.90
12870;DHT22;6503;48.572;13.460;2022-12-29T12:33:53;7.20;99.90
12870;DHT22;6503;48.572;13.460;2022-12-29T12:37:02;7.20;99.90
12870;DHT22;6503;48.572;13.460;2022-12-29T12:40:15;7.20;99.90
12870;DHT22;6503;48.572;13.460;2022-12-29T12:43:03;7.20;99.90
12870;DHT22;6503;48.572;13.460;2022-12-29T12:45:45;7.30;99.90
12870;DHT22;6503;48.572;13.460;2022-12-29T12:51:32;7.40;99.90
12870;DHT22;6503;48.572;13.460;2022-12-29T12:54:25;7.40;99.90
12870;DHT22;6503;48.572;13.460;2022-12-29T12:57:16;7.40;99.90
12870;DHT22;6503;48.572;13.460;2022-12-29T13:00:20;7.60;99.90
12870;DHT22;6503;48.572;13.460;2022-12-29T13:03:09;7.50;99.90
12870;DHT22;6503;48.572;13.460;2022-12-29T13:06:10;7.60;99.90
12870;DHT22;6503;48.572;13.460;2022-12-29T13:09:16;7.60;99.90
12870;DHT22;6503;48.572;13.460;2022-12-29T13:12:16;7.60;99.90
12870;DHT22;6503;48.572;13.460;2022-12-29T13:14:56;7.60;99.90
12870;DHT22;6503;48.572;13.460;2022-12-29T13:17:47;7.60;99.90
12870;DHT22;6503;48.572;13.460;2022-12-29T13:20:33;7.50;99.90
12870;DHT22;6503;48.572;13.460;2022-12-29T13:23:11;7.50;99.90
12870;DHT22;6503;48.572;13.460;2022-12-29T13:25:55;7.40;99.90
12870;DHT22;6503;48.572;13.460;2022-12-29T13:28:34;7.40;99.90
12870;DHT22;6503;48.572;13.460;2022-12-29T13:31:12;7.40;99.90
12870;DHT22;6503;48.572;13.460;2022-12-29T13:34:00;7.30;99.90
12870;DHT22;6503;48.572;13.460;2022-12-29T13:36:40;7.30;99.90
12870;DHT22;6503;48.572;13.460;2022-12-29T13:39:16;7.40;99.90
12870;DHT22;6503;48.572;13.460;2022-12-29T13:41:48;7.40;99.90
12870;DHT22;6503;48.572;13.460;2022-12-29T13:44:19;7.30;99.90
12870;DHT22;6503;48.572;13.460;2022-12-29T13:46:48;7.30;99.90
12870;DHT22;6503;48.572;13.460;2022-12-29T13:49:19;7.30;99.90
12870;DHT22;6503;48.572;13.460;2022-12-29T13:51:50;7.30;99.90
12870;DHT22;6503;48.572;13.460;2022-12-29T13:54:28;7.30;99.90
12870;DHT22;6503;48.572;13.460;2022-12-29T13:57:05;7.40;99.90
12870;DHT22;6503;48.572;13.460;2022-12-29T13:59:42;7.40;99.90
12870;DHT22;6503;48.572;13.460;2022-12-29T14:02:26;7.50;99.90
12870;DHT22;6503;48.572;13.460;2022-12-29T14:04:59;7.50;99.90
12870;DHT22;6503;48.572;13.460;2022-12-29T14:07:36;7.40;99.90
12870;DHT22;6503;48.572;13.460;2022-12-29T14:10:05;7.30;99.90
12870;DHT22;6503;48.572;13.460;2022-12-29T14:12:36;7.30;99.90
12870;DHT22;6503;48.572;13.460;2022-12-29T14:15:20;7.30;99.90
12870;DHT22;6503;48.572;13.460;2022-12-29T14:18:03;7.20;99.90
12870;DHT22;6503;48.572;13.460;2022-12-29T14:20:31;7.10;99.90
12870;DHT22;6503;48.572;13.460;2022-12-29T14:23:16;7.10;99.90
12870;DHT22;6503;48.572;13.460;2022-12-29T14:25:59;7.00;99.90
12870;DHT22;6503;48.572;13.460;2022-12-29T14:28:27;6.90;99.90
12870;DHT22;6503;48.572;13.460;2022-12-29T14:30:57;6.90;99.90
12870;DHT22;6503;48.572;13.460;2022-12-29T14:33:27;6.80;99.90
12870;DHT22;6503;48.572;13.460;2022-12-29T14:35:55;6.80;99.90
12870;DHT22;6503;48.572;13.460;2022-12-29T14:38:56;6.70;99.90
12870;DHT22;6503;48.572;13.460;2022-12-29T14:41:27;6.60;99.90
12870;DHT22;6503;48.572;13.460;2022-12-29T14:44:01;6.60;99.90
12870;DHT22;6503;48.572;13.460;2022-12-29T14:46:49;6.60;99.90
12870;DHT22;6503;48.572;13.460;2022-12-29T14:49:23;6.50;99.90
12870;DHT22;6503;48.572;13.460;2022-12-29T14:51:53;6.50;99.90
12870;DHT22;6503;48.572;13.460;2022-12-29T14:54:42;6.40;99.90
12870;DHT22;6503;48.572;13.460;2022-12-29T14:57:19;6.40;99.90
12870;DHT22;6503;48.572;13.460;2022-12-29T14:59:48;6.30;99.90
12870;DHT22;6503;48.572;13.460;2022-12-29T15:02:21;6.20;99.90
12870;DHT22;6503;48.572;13.460;2022-12-29T15:04:49;6.20;99.90
12870;DHT22;6503;48.572;13.460;2022-12-29T15:07:18;6.20;99.90
12870;DHT22;6503;48.572;13.460;2022-12-29T15:09:54;6.10;99.90
12870;DHT22;6503;48.572;13.460;2022-12-29T15:12:32;6.10;99.90
12870;DHT22;6503;48.572;13.460;2022-12-29T15:15:20;6.10;99.90
12870;DHT22;6503;48.572;13.460;2022-12-29T15:17:57;6.00;99.90
12870;DHT22;6503;48.572;13.460;2022-12-29T15:21:13;5.90;99.90
12870;DHT22;6503;48.572;13.460;2022-12-29T15:24:08;5.70;99.90
12870;DHT22;6503;48.572;13.460;2022-12-29T15:37:06;5.30;99.90
12870;DHT22;6503;48.572;13.460;2022-12-29T15:40:21;5.20;99.90
12870;DHT22;6503;48.572;13.460;2022-12-29T15:43:53;5.10;99.90
12870;DHT22;6503;48.572;13.460;2022-12-29T15:46:48;5.10;99.90
12870;DHT22;6503;48.572;13.460;2022-12-29T15:50:12;4.90;99.90
12870;DHT22;6503;48.572;13.460;2022-12-29T15:56:36;4.70;99.90
12870;DHT22;6503;48.572;13.460;2022-12-29T15:59:28;4.60;99.90
12870;DHT22;6503;48.572;13.460;2022-12-29T16:01:57;4.50;99.90
12870;DHT22;6503;48.572;13.460;2022-12-29T16:04:27;4.40;99.90
12870;DHT22;6503;48.572;13.460;2022-12-29T16:06:58;4.30;99.90
12870;DHT22;6503;48.572;13.460;2022-12-29T16:09:31;4.30;99.90
12870;DHT22;6503;48.572;13.460;2022-12-29T16:12:02;4.30;99.90
12870;DHT22;6503;48.572;13.460;2022-12-29T16:14:33;4.20;99.90
12870;DHT22;6503;48.572;13.460;2022-12-29T16:17:03;4.30;99.90
12870;DHT22;6503;48.572;13.460;2022-12-29T16:19:34;4.30;99.90
12870;DHT22;6503;48.572;13.460;2022-12-29T16:22:23;4.30;99.90
12870;DHT22;6503;48.572;13.460;2022-12-29T16:24:56;4.20;99.90
12870;DHT22;6503;48.572;13.460;2022-12-29T16:27:37;4.20;99.90
12870;DHT22;6503;48.572;13.460;2022-12-29T16:30:07;4.10;99.90
12870;DHT22;6503;48.572;13.460;2022-12-29T16:32:46;4.10;99.90
12870;DHT22;6503;48.572;13.460;2022-12-29T16:35:17;4.10;99.90
12870;DHT22;6503;48.572;13.460;2022-12-29T16:38:13;4.10;99.90
12870;DHT22;6503;48.572;13.460;2022-12-29T16:40:50;4.10;99.90
12870;DHT22;6503;48.572;13.460;2022-12-29T16:43:36;4.10;99.90
12870;DHT22;6503;48.572;13.460;2022-12-29T16:46:21;4.10;99.90
12870;DHT22;6503;48.572;13.460;2022-12-29T16:48:54;4.00;99.90
12870;DHT22;6503;48.572;13.460;2022-12-29T16:51:30;4.00;99.90
12870;DHT22;6503;48.572;13.460;2022-12-29T16:54:01;3.90;99.90
12870;DHT22;6503;48.572;13.460;2022-12-29T16:56:35;3.90;99.90
12870;DHT22;6503;48.572;13.460;2022-12-29T16:59:28;3.90;99.90
12870;DHT22;6503;48.572;13.460;2022-12-29T17:02:13;3.90;99.90
12870;DHT22;6503;48.572;13.460;2022-12-29T17:04:44;3.90;99.90
12870;DHT22;6503;48.572;13.460;2022-12-29T17:07:33;3.90;99.90
12870;DHT22;6503;48.572;13.460;2022-12-29T17:10:26;3.80;99.90
12870;DHT22;6503;48.572;13.460;2022-12-29T17:13:15;3.80;99.90
12870;DHT22;6503;48.572;13.460;2022-12-29T17:19:28;3.90;99.90
12870;DHT22;6503;48.572;13.460;2022-12-29T17:21:58;3.90;99.90
12870;DHT22;6503;48.572;13.460;2022-12-29T17:24:39;3.90;99.90
12870;DHT22;6503;48.572;13.460;2022-12-29T17:27:27;3.90;99.90
12870;DHT22;6503;48.572;13.460;2022-12-29T17:30:02;3.90;99.90
12870;DHT22;6503;48.572;13.460;2022-12-29T17:33:11;3.90;99.90
12870;DHT22;6503;48.572;13.460;2022-12-29T17:38:59;3.80;99.90
12870;DHT22;6503;48.572;13.460;2022-12-29T17:45:11;3.70;99.90
12870;DHT22;6503;48.572;13.460;2022-12-29T17:50:56;3.80;99.90
12870;DHT22;6503;48.572;13.460;2022-12-29T17:53:42;3.80;99.90
12870;DHT22;6503;48.572;13.460;2022-12-29T17:59:28;3.90;99.90
12870;DHT22;6503;48.572;13.460;2022-12-29T18:02:40;3.90;99.90
12870;DHT22;6503;48.572;13.460;2022-12-29T18:05:25;3.90;99.90
12870;DHT22;6503;48.572;13.460;2022-12-29T18:08:00;3.80;99.90
12870;DHT22;6503;48.572;13.460;2022-12-29T18:10:37;3.80;99.90
12870;DHT22;6503;48.572;13.460;2022-12-29T18:16:14;3.80;99.90
12870;DHT22;6503;48.572;13.460;2022-12-29T18:18:57;3.70;99.90
12870;DHT22;6503;48.572;13.460;2022-12-29T18:21:32;3.80;99.90
12870;DHT22;6503;48.572;13.460;2022-12-29T18:24:34;3.80;99.90
12870;DHT22;6503;48.572;13.460;2022-12-29T18:27:16;3.80;99.90
12870;DHT22;6503;48.572;13.460;2022-12-29T18:30:24;3.80;99.90
12870;DHT22;6503;48.572;13.460;2022-12-29T18:36:30;3.80;99.90
12870;DHT22;6503;48.572;13.460;2022-12-29T18:39:15;3.90;99.90
12870;DHT22;6503;48.572;13.460;2022-12-29T18:42:39;3.80;99.90
12870;DHT22;6503;48.572;13.460;2022-12-29T18:45:32;3.70;99.90
12870;DHT22;6503;48.572;13.460;2022-12-29T18:48:35;3.70;99.90
12870;DHT22;6503;48.572;13.460;2022-12-29T18:51:11;3.60;99.90
12870;DHT22;6503;48.572;13.460;2022-12-29T18:54:01;3.70;99.90
12870;DHT22;6503;48.572;13.460;2022-12-29T18:56:39;3.60;99.90
12870;DHT22;6503;48.572;13.460;2022-12-29T18:59:32;3.60;99.90
12870;DHT22;6503;48.572;13.460;2022-12-29T19:02:29;3.60;99.90
12870;DHT22;6503;48.572;13.460;2022-12-29T19:05:34;3.50;99.90
12870;DHT22;6503;48.572;13.460;2022-12-29T19:08:27;3.40;99.90
12870;DHT22;6503;48.572;13.460;2022-12-29T19:11:21;3.40;99.90
12870;DHT22;6503;48.572;13.460;2022-12-29T19:17:34;3.40;99.90
12870;DHT22;6503;48.572;13.460;2022-12-29T19:20:36;3.40;99.90
12870;DHT22;6503;48.572;13.460;2022-12-29T19:23:09;3.40;99.90
12870;DHT22;6503;48.572;13.460;2022-12-29T19:25:43;3.40;99.90
12870;DHT22;6503;48.572;13.460;2022-12-29T19:28:28;3.30;99.90
12870;DHT22;6503;48.572;13.460;2022-12-29T19:34:09;3.10;99.90
12870;DHT22;6503;48.572;13.460;2022-12-29T19:36:52;3.20;99.90
12870;DHT22;6503;48.572;13.460;2022-12-29T19:39:39;3.20;99.90
12870;DHT22;6503;48.572;13.460;2022-12-29T19:42:21;3.20;99.90
12870;DHT22;6503;48.572;13.460;2022-12-29T19:45:04;3.20;99.90
12870;DHT22;6503;48.572;13.460;2022-12-29T19:47:50;3.20;99.90
12870;DHT22;6503;48.572;13.460;2022-12-29T19:50:34;3.10;99.90
12870;DHT22;6503;48.572;13.460;2022-12-29T19:53:08;3.10;99.90
12870;DHT22;6503;48.572;13.460;2022-12-29T19:55:42;3.10;99.90
12870;DHT22;6503;48.572;13.460;2022-12-29T19:58:29;3.10;99.90
12870;DHT22;6503;48.572;13.460;2022-12-29T20:01:08;3.10;99.90
12870;DHT22;6503;48.572;13.460;2022-12-29T20:03:39;3.10;99.90
12870;DHT22;6503;48.572;13.460;2022-12-29T20:06:18;3.10;99.90
12870;DHT22;6503;48.572;13.460;2022-12-29T20:11:40;3.10;99.90
12870;DHT22;6503;48.572;13.460;2022-12-29T20:14:27;3.10;99.90
12870;DHT22;6503;48.572;13.460;2022-12-29T20:17:13;3.10;99.90
12870;DHT22;6503;48.572;13.460;2022-12-29T20:19:50;3.10;99.90
12870;DHT22;6503;48.572;13.460;2022-12-29T20:22:35;3.10;99.90
12870;DHT22;6503;48.572;13.460;2022-12-29T20:25:40;3.10;99.90
12870;DHT22;6503;48.572;13.460;2022-12-29T20:28:39;3.00;99.90
12870;DHT22;6503;48.572;13.460;2022-12-29T20:31:37;2.90;99.90
12870;DHT22;6503;48.572;13.460;2022-12-29T20:34:25;2.90;99.90
12870;DHT22;6503;48.572;13.460;2022-12-29T20:37:15;2.90;99.90
12870;DHT22;6503;48.572;13.460;2022-12-29T20:40:05;2.90;99.90
12870;DHT22;6503;48.572;13.460;2022-12-29T20:43:07;2.90;99.90
12870;DHT22;6503;48.572;13.460;2022-12-29T20:45:38;3.00;99.90
12870;DHT22;6503;48.572;13.460;2022-12-29T20:48:30;2.90;99.90
12870;DHT22;6503;48.572;13.460;2022-12-29T20:51:13;3.00;99.90